European Highlander — C6SN6 — position and weather

sailwx.info

Track history (hours):
 
Tides and Currents Weather Stations Pressure Air Temp Water Temp Dewpoint Dewpoint Depression Visibility Wind Speed Wind Dir Waves Ship Positions

European Highlander

Operator: P&O Irish Sea Ltd

Last reported at 2018-Jul-22 07:00 UTC. Time now 2018-Jul-22 07:05 UTC.
Position N 54°55' W 005°34'.

Length 161 m; draft 5.4 m.

Type: Passenger vessel. MMSI: 311404000.

Date/timePositionNaut miles runAvg speedWind from/ knotsBaromVisibWave heightAir tempDewpointWater temp
2018-Jul-22 07:00N 54°55' W 005°34'816.3
2018-Jul-22 06:29N 54°51' W 005°48'0 0.3
2018-Jul-22 05:55N 54°51' W 005°48'0 0.0
2018-Jul-22 05:25N 54°51' W 005°48'0 0.0
2018-Jul-22 04:55N 54°51' W 005°48'0 0.0
2018-Jul-22 04:19N 54°51' W 005°48'0 0.0
2018-Jul-22 03:55N 54°51' W 005°48'0 0.0
2018-Jul-22 03:28N 54°51' W 005°48'0 0.0
2018-Jul-22 02:55N 54°51' W 005°48'0 0.0
2018-Jul-22 02:25N 54°51' W 005°48'0 0.0
2018-Jul-22 01:55N 54°51' W 005°48'0 0.0
2018-Jul-22 01:25N 54°51' W 005°48'0 0.0
2018-Jul-22 00:49N 54°51' W 005°48'0 0.0
2018-Jul-22 00:25N 54°51' W 005°48'0 0.0
2018-Jul-21 23:55N 54°51' W 005°48'0 0.0
2018-Jul-21 23:25N 54°51' W 005°48'0 0.0
2018-Jul-21 22:55N 54°51' W 005°48'0 0.0
2018-Jul-21 22:25N 54°51' W 005°48'0 0.0
2018-Jul-21 21:49N 54°51' W 005°48'0 0.0
2018-Jul-21 21:25N 54°51' W 005°48'0 0.0
2018-Jul-21 20:56N 54°51' W 005°48'611.6
2018-Jul-21 20:23N 54°54' W 005°38'718.4
2018-Jul-21 20:00N 54°57' W 005°28'1018.2
2018-Jul-21 19:29N 55°01' W 005°12'612.6
2018-Jul-21 18:59N 54°59' W 005°02'1 0.8
2018-Jul-21 17:31N 54°58' W 005°01'0 0.3
2018-Jul-21 17:24N 54°58' W 005°01'611.5
2018-Jul-21 16:55N 55°01' W 005°08'717.3
2018-Jul-21 16:30N 54°58' W 005°20'918.1
2018-Jul-21 16:00N 54°55' W 005°34'817.0
2018-Jul-21 15:30N 54°51' W 005°48'0 0.7
2018-Jul-21 15:00N 54°51' W 005°48'0 0.0
2018-Jul-21 14:29N 54°51' W 005°48'510.8
2018-Jul-21 14:00N 54°54' W 005°40'917.3
2018-Jul-21 13:30N 54°57' W 005°27'1017.3
2018-Jul-21 12:57N 55°01' W 005°11'613.5
2018-Jul-21 12:30N 54°58' W 005°02'1 0.7
2018-Jul-21 11:16N 54°58' W 005°01'413.0
2018-Jul-21 10:57N 55°01' W 005°05'819.0
2018-Jul-21 10:31N 54°58' W 005°19'1020.3
2018-Jul-21 10:00N 54°55' W 005°35'816.0
2018-Jul-21 09:31N 54°51' W 005°48'0 0.2
2018-Jul-21 08:51N 54°51' W 005°48'0 0.0
2018-Jul-21 08:30N 54°51' W 005°48'4 7.7
2018-Jul-21 08:00N 54°53' W 005°42'918.3
2018-Jul-21 07:30N 54°57' W 005°28'918.0
2018-Jul-21 06:59N 55°01' W 005°13'714.0
2018-Jul-21 06:30N 54°59' W 005°02'1 0.6
2018-Jul-21 04:51N 54°58' W 005°01'712.8
2018-Jul-21 04:19N 55°02' W 005°11'516.9
2018-Jul-21 04:00N 54°59' W 005°19'917.7
2018-Jul-21 03:30N 54°55' W 005°32'918.2
2018-Jul-21 02:59N 54°52' W 005°47'1 1.6
2018-Jul-21 02:24N 54°51' W 005°48'0 0.0
2018-Jul-21 02:00N 54°51' W 005°48'0 0.0
2018-Jul-21 01:27N 54°51' W 005°48'0 0.0
2018-Jul-21 01:00N 54°51' W 005°48'5 9.4
2018-Jul-21 00:29N 54°54' W 005°41'817.3
2018-Jul-21 00:00N 54°57' W 005°28'817.2
2018-Jul-20 23:30N 55°00' W 005°14'713.4
2018-Jul-20 22:59N 54°59' W 005°02'5 1.8
2018-Jul-20 20:22N 55°01' W 005°09'718.7
2018-Jul-20 20:00N 54°59' W 005°20'917.7
2018-Jul-20 19:30N 54°55' W 005°34'915.7
2018-Jul-20 18:56N 54°51' W 005°48'0 0.3
2018-Jul-20 18:27N 54°51' W 005°48'0 0.0
2018-Jul-20 17:57N 54°51' W 005°48'0 0.0
2018-Jul-20 17:30N 54°51' W 005°48'814.9
2018-Jul-20 16:58N 54°55' W 005°36'1020.2
2018-Jul-20 16:28N 54°59' W 005°20'1015.8
2018-Jul-20 15:49N 54°59' W 005°02'1 0.9
2018-Jul-20 14:22N 54°58' W 005°01'611.8
2018-Jul-20 13:54N 55°01' W 005°08'717.3
2018-Jul-20 13:30N 54°58' W 005°19'918.5
2018-Jul-20 13:00N 54°55' W 005°34'916.9
2018-Jul-20 12:29N 54°51' W 005°48'0 0.2
2018-Jul-20 11:33N 54°51' W 005°48'0 0.0
2018-Jul-20 11:30N 54°51' W 005°48'510.3
2018-Jul-20 10:58N 54°54' W 005°40'919.9
2018-Jul-20 10:30N 54°58' W 005°25'1315.6
2018-Jul-20 09:39N 54°59' W 005°02'1 0.9
2018-Jul-20 08:22N 54°58' W 005°01'611.9
2018-Jul-20 07:52N 55°02' W 005°09'718.8
2018-Jul-20 07:30N 54°58' W 005°20'917.7
2018-Jul-20 07:00N 54°55' W 005°34'817.1
2018-Jul-20 06:30N 54°52' W 005°48'1 1.5
2018-Jul-20 05:59N 54°51' W 005°48'0 0.0
2018-Jul-20 05:29N 54°51' W 005°48'0 0.0
2018-Jul-20 05:00N 54°51' W 005°48'5 9.9
2018-Jul-20 04:27N 54°54' W 005°40'817.4
2018-Jul-20 04:00N 54°58' W 005°29'816.7
2018-Jul-20 03:30N 55°00' W 005°15'713.5
2018-Jul-20 02:57N 54°59' W 005°02'1 0.5
2018-Jul-20 00:46N 54°58' W 005°01'512.4
2018-Jul-20 00:20N 55°02' W 005°08'618.6
2018-Jul-20 00:00N 54°59' W 005°17'1020.8
2018-Jul-19 23:30N 54°55' W 005°34'917.2
2018-Jul-19 23:00N 54°51' W 005°48'0 0.4
2018-Jul-19 22:28N 54°51' W 005°48'0 0.0
2018-Jul-19 21:58N 54°51' W 005°48'0 0.0
2018-Jul-19 21:28N 54°51' W 005°48'0 0.0
2018-Jul-19 20:57N 54°51' W 005°48'511.0
2018-Jul-19 20:30N 54°54' W 005°41'917.9
2018-Jul-19 20:00N 54°58' W 005°27'917.3
2018-Jul-19 19:30N 55°01' W 005°13'613.0
2018-Jul-19 19:01N 54°59' W 005°02'1 2.3
2018-Jul-19 18:26N 54°58' W 005°01'0 0.0
2018-Jul-19 17:56N 54°58' W 005°01'0 0.0
2018-Jul-19 17:27N 54°58' W 005°01'711.3
2018-Jul-19 16:52N 55°01' W 005°10'820.5
2018-Jul-19 16:30N 54°58' W 005°22'1020.3
2018-Jul-19 16:00N 54°54' W 005°38'612.5
2018-Jul-19 15:30N 54°51' W 005°48'0 0.0
2018-Jul-19 14:59N 54°51' W 005°48'0 0.0
2018-Jul-19 14:30N 54°51' W 005°48'1414.4
2018-Jul-19 13:30N 54°58' W 005°26'918.1
2018-Jul-19 13:00N 55°01' W 005°11'713.1
2018-Jul-19 12:30N 54°58' W 005°02'0 0.8
2018-Jul-19 12:00N 54°58' W 005°01'0 0.0
2018-Jul-19 11:28N 54°58' W 005°01'5 9.5
2018-Jul-19 10:55N 55°01' W 005°07'819.5
2018-Jul-19 10:30N 54°58' W 005°20'1020.7
2018-Jul-19 10:00N 54°54' W 005°37'714.2
2018-Jul-19 09:29N 54°51' W 005°48'0 0.1
2018-Jul-19 08:56N 54°51' W 005°48'0 0.0
2018-Jul-19 08:26N 54°51' W 005°48'4 8.3
2018-Jul-19 08:01N 54°53' W 005°43'917.9
2018-Jul-19 07:29N 54°57' W 005°29'816.9
2018-Jul-19 07:00N 55°00' W 005°15'813.5
2018-Jul-19 06:25N 54°59' W 005°02'1 0.7
2018-Jul-19 04:51N 54°58' W 005°01'514.9
2018-Jul-19 04:29N 55°02' W 005°07'816.3
2018-Jul-19 04:00N 54°59' W 005°19'917.8
2018-Jul-19 03:30N 54°55' W 005°33'917.9
2018-Jul-19 03:00N 54°52' W 005°48'1 1.6
2018-Jul-19 02:29N 54°51' W 005°48'0 0.0
2018-Jul-19 01:59N 54°51' W 005°48'0 0.0
2018-Jul-19 01:23N 54°51' W 005°48'0 0.0
2018-Jul-19 01:00N 54°51' W 005°48'611.1
2018-Jul-19 00:30N 54°54' W 005°40'917.2
2018-Jul-19 00:00N 54°57' W 005°26'918.2
2018-Jul-18 23:30N 55°01' W 005°12'7 2.7
2018-Jul-18 20:54N 54°58' W 005°01'511.9
2018-Jul-18 20:29N 55°02' W 005°07'919.6
2018-Jul-18 20:00N 54°58' W 005°22'1020.0
2018-Jul-18 19:29N 54°54' W 005°39'611.8
2018-Jul-18 18:58N 54°51' W 005°48'0 0.0
2018-Jul-18 18:29N 54°51' W 005°48'0 0.0
2018-Jul-18 17:59N 54°51' W 005°48'0 0.0
2018-Jul-18 17:29N 54°51' W 005°48'612.2
2018-Jul-18 17:01N 54°54' W 005°39'918.3
2018-Jul-18 16:31N 54°58' W 005°25'1017.6
2018-Jul-18 15:55N 55°02' W 005°08'6 3.6
2018-Jul-18 14:22N 54°58' W 005°01'1214.1
2018-Jul-18 13:30N 54°57' W 005°22'918.1
2018-Jul-18 13:00N 54°54' W 005°37'713.8
2018-Jul-18 12:30N 54°51' W 005°48'0 0.1
2018-Jul-18 12:00N 54°51' W 005°48'0 0.0
2018-Jul-18 11:30N 54°51' W 005°48'1413.9
2018-Jul-18 10:29N 54°58' W 005°26'918.0
2018-Jul-18 10:00N 55°01' W 005°12'713.1
2018-Jul-18 09:30N 54°58' W 005°02'1 0.9
2018-Jul-18 08:32N 54°58' W 005°01'0 1.5
2018-Jul-18 08:28N 54°58' W 005°01'610.5
2018-Jul-18 07:55N 55°01' W 005°09'820.2
2018-Jul-18 07:30N 54°58' W 005°22'1019.8
2018-Jul-18 07:01N 54°54' W 005°38'612.9
2018-Jul-18 06:30N 54°51' W 005°48'0 0.0
2018-Jul-18 06:00N 54°51' W 005°48'0 0.0
2018-Jul-18 05:30N 54°51' W 005°48'0 0.0
2018-Jul-18 04:58N 54°51' W 005°48'4 8.6
2018-Jul-18 04:30N 54°53' W 005°43'1018.5
2018-Jul-18 03:59N 54°58' W 005°28'917.9
2018-Jul-18 03:30N 55°01' W 005°14'713.6
2018-Jul-18 03:00N 54°59' W 005°03'1 0.7
2018-Jul-18 00:54N 54°58' W 005°01'612.8
2018-Jul-18 00:24N 55°01' W 005°10'717.0
2018-Jul-18 00:00N 54°58' W 005°20'918.0
2018-Jul-17 23:30N 54°55' W 005°35'816.5
2018-Jul-17 23:00N 54°51' W 005°48'0 0.3
2018-Jul-17 22:28N 54°51' W 005°48'0 0.0
2018-Jul-17 21:52N 54°51' W 005°48'0 0.0
2018-Jul-17 21:28N 54°51' W 005°48'0 0.0
2018-Jul-17 20:58N 54°51' W 005°48'510.2
2018-Jul-17 20:27N 54°54' W 005°40'919.7
2018-Jul-17 20:01N 54°58' W 005°27'1019.8
2018-Jul-17 19:30N 55°01' W 005°11'612.8
2018-Jul-17 19:00N 54°58' W 005°01'0 0.5
2018-Jul-17 18:21N 54°58' W 005°01'0 0.0
2018-Jul-17 18:00N 54°58' W 005°01'0 0.4
2018-Jul-17 17:31N 54°58' W 005°01'712.4
2018-Jul-17 16:59N 55°01' W 005°11'1020.6
2018-Jul-17 16:30N 54°57' W 005°26'1019.3
2018-Jul-17 16:00N 54°53' W 005°42'4 7.7
2018-Jul-17 15:29N 54°51' W 005°48'0 0.0
2018-Jul-17 14:59N 54°51' W 005°48'0 0.0
2018-Jul-17 14:30N 54°51' W 005°48'510.6
2018-Jul-17 14:00N 54°54' W 005°40'917.5
2018-Jul-17 13:30N 54°57' W 005°27'917.2
2018-Jul-17 13:00N 55°01' W 005°13'713.5
2018-Jul-17 12:30N 54°58' W 005°02'1 1.4
2018-Jul-17 11:53N 54°58' W 005°01'0 0.0
2018-Jul-17 11:30N 54°58' W 005°01'510.3
2018-Jul-17 10:59N 55°02' W 005°07'816.5
2018-Jul-17 10:30N 54°58' W 005°20'918.1
2018-Jul-17 10:00N 54°54' W 005°34'916.9
2018-Jul-17 09:30N 54°51' W 005°48'0 0.3
2018-Jul-17 08:57N 54°51' W 005°48'0 0.0
2018-Jul-17 08:30N 54°51' W 005°48'4 8.0
2018-Jul-17 08:01N 54°53' W 005°42'917.5
2018-Jul-17 07:31N 54°57' W 005°29'917.1
2018-Jul-17 07:01N 55°00' W 005°15'713.9
2018-Jul-17 06:29N 54°59' W 005°02'1 0.8
2018-Jul-17 04:48N 54°58' W 005°01'613.2
2018-Jul-17 04:21N 55°02' W 005°09'720.7
2018-Jul-17 04:00N 54°59' W 005°20'1119.8
2018-Jul-17 03:28N 54°54' W 005°37'714.8
2018-Jul-17 03:00N 54°51' W 005°48'0 0.2
2018-Jul-17 02:29N 54°51' W 005°48'0 0.0
2018-Jul-17 01:59N 54°51' W 005°48'0 0.0
2018-Jul-17 01:29N 54°51' W 005°48'0 0.0
2018-Jul-17 01:00N 54°51' W 005°48'5 9.7
2018-Jul-17 00:30N 54°54' W 005°41'1717.2
2018-Jul-16 23:31N 55°01' W 005°14'713.6
2018-Jul-16 23:00N 54°59' W 005°03'1 0.8
2018-Jul-16 21:18N 54°58' W 005°01'0 0.2
2018-Jul-16 20:59N 54°58' W 005°01'510.4
2018-Jul-16 20:28N 55°01' W 005°08'818.1
2018-Jul-16 20:01N 54°58' W 005°21'1120.4
2018-Jul-16 19:30N 54°54' W 005°38'612.6
2018-Jul-16 18:59N 54°51' W 005°48'0 0.0
2018-Jul-16 18:23N 54°51' W 005°48'0 0.0
2018-Jul-16 17:59N 54°51' W 005°48'0 0.0
2018-Jul-16 17:29N 54°51' W 005°48'5 9.9
2018-Jul-16 16:58N 54°54' W 005°40'1020.5
2018-Jul-16 16:30N 54°58' W 005°25'817.1
2018-Jul-16 16:00N 55°01' W 005°12'7 4.8
2018-Jul-16 14:30N 54°58' W 005°01'5 9.3
2018-Jul-16 13:58N 55°02' W 005°07'920.0
2018-Jul-16 13:30N 54°58' W 005°21'1119.8
2018-Jul-16 12:57N 54°53' W 005°38'613.1
2018-Jul-16 12:30N 54°51' W 005°48'0 0.0
2018-Jul-16 11:52N 54°51' W 005°48'0 0.0
2018-Jul-16 11:30N 54°51' W 005°48'4 9.0
2018-Jul-16 11:01N 54°53' W 005°42'917.7
2018-Jul-16 10:31N 54°57' W 005°28'918.3
2018-Jul-16 10:01N 55°01' W 005°13'713.5
2018-Jul-16 09:30N 54°58' W 005°02'1 0.8
2018-Jul-16 08:35N 54°58' W 005°01'0 0.8
2018-Jul-16 08:30N 54°58' W 005°01'611.5
2018-Jul-16 08:00N 55°01' W 005°09'917.2
2018-Jul-16 07:30N 54°57' W 005°22'918.2
2018-Jul-16 07:00N 54°54' W 005°37'714.4
2018-Jul-16 06:30N 54°51' W 005°48'0 0.1
2018-Jul-16 05:42N 54°51' W 005°48'0 0.0
2018-Jul-16 05:18N 54°51' W 005°48'0 0.0
2018-Jul-16 05:00N 54°51' W 005°48'5 9.5
2018-Jul-16 04:28N 54°54' W 005°40'818.4
2018-Jul-16 04:00N 54°58' W 005°27'917.2
2018-Jul-16 03:28N 55°02' W 005°13'715.1
2018-Jul-16 03:00N 54°59' W 005°02'1 0.6
2018-Jul-16 00:51N 54°58' W 005°01'812.5
2018-Jul-16 00:12N 55°00' W 005°15'417.6
2018-Jul-15 23:59N 54°58' W 005°20'917.8
2018-Jul-15 23:29N 54°54' W 005°34'816.7
2018-Jul-15 22:59N 54°51' W 005°48'0 0.4
2018-Jul-15 22:29N 54°51' W 005°48'0 0.0
2018-Jul-15 21:59N 54°51' W 005°48'0 0.0
2018-Jul-15 21:29N 54°51' W 005°48'0 0.0
2018-Jul-15 21:00N 54°51' W 005°48'611.7
2018-Jul-15 20:27N 54°55' W 005°39'716.3
2018-Jul-15 20:00N 54°59' W 005°28'917.8
2018-Jul-15 19:29N 55°01' W 005°13'613.2
2018-Jul-15 19:00N 54°59' W 005°02'1 0.6
2018-Jul-15 17:19N 54°58' W 005°01'612.3
2018-Jul-15 16:49N 55°01' W 005°10'720.4
2018-Jul-15 16:30N 54°58' W 005°20'1119.8
2018-Jul-15 15:57N 54°54' W 005°37'715.4
2018-Jul-15 15:30N 54°51' W 005°48'0 0.3
2018-Jul-15 14:56N 54°51' W 005°48'0 0.0
2018-Jul-15 14:30N 54°51' W 005°48'4 8.4
2018-Jul-15 14:00N 54°54' W 005°43'918.5
2018-Jul-15 13:30N 54°57' W 005°28'1514.7
2018-Jul-15 12:31N 54°59' W 005°02'015.3
2018-Jul-15 12:30N 54°59' W 005°02'1 1.2
2018-Jul-15 11:27N 54°58' W 005°01'613.8
2018-Jul-15 11:00N 55°01' W 005°10'817.1
2018-Jul-15 10:30N 54°57' W 005°22'918.1
2018-Jul-15 10:00N 54°53' W 005°37'713.8
2018-Jul-15 09:30N 54°51' W 005°48'0 0.0
2018-Jul-15 08:56N 54°51' W 005°48'0 0.0
2018-Jul-15 08:26N 54°51' W 005°48'2 5.4
2018-Jul-15 08:00N 54°52' W 005°45'1019.5
2018-Jul-15 07:30N 54°57' W 005°30'1019.3
2018-Jul-15 07:00N 55°01' W 005°14'713.5
2018-Jul-15 06:28N 54°59' W 005°02'1 0.2
2018-Jul-14 23:23N 54°58' W 005°01'0 0.0
2018-Jul-14 22:59N 54°58' W 005°01'0 0.0
2018-Jul-14 22:29N 54°58' W 005°01'0 0.0
2018-Jul-14 21:59N 54°58' W 005°01'0 0.0
2018-Jul-14 21:29N 54°58' W 005°01'8 7.2
2018-Jul-14 20:23N 55°00' W 005°14'820.0
2018-Jul-14 19:59N 54°56' W 005°26'1021.3
2018-Jul-14 19:30N 54°53' W 005°43'3 6.9
2018-Jul-14 19:00N 54°51' W 005°48'0 0.0
2018-Jul-14 18:29N 54°51' W 005°48'0 0.0
2018-Jul-14 17:59N 54°51' W 005°48'0 0.0
2018-Jul-14 17:29N 54°51' W 005°48'3 5.3
2018-Jul-14 17:00N 54°53' W 005°45'1020.2
2018-Jul-14 16:30N 54°57' W 005°29'1019.8
2018-Jul-14 16:00N 55°01' W 005°13'714.7
2018-Jul-14 15:30N 54°58' W 005°02'1 1.1
2018-Jul-14 14:57N 54°58' W 005°01'5 5.6
2018-Jul-14 14:00N 55°02' W 005°07'1021.0
2018-Jul-14 13:31N 54°57' W 005°24'1019.9
2018-Jul-14 13:00N 54°53' W 005°40'5 9.3
2018-Jul-14 12:27N 54°51' W 005°48'0 0.0
2018-Jul-14 11:56N 54°51' W 005°48'0 0.0
2018-Jul-14 11:30N 54°51' W 005°48'612.0
2018-Jul-14 11:00N 54°54' W 005°39'918.1
2018-Jul-14 10:30N 54°58' W 005°25'1314.9
2018-Jul-14 09:38N 54°59' W 005°02'1 1.1
2018-Jul-14 08:23N 54°58' W 005°01'513.0
2018-Jul-14 07:59N 55°02' W 005°07'816.9
2018-Jul-14 07:30N 54°58' W 005°20'1019.2
2018-Jul-14 07:00N 54°54' W 005°35'816.2
2018-Jul-14 06:30N 54°51' W 005°48'0 0.1
2018-Jul-14 05:57N 54°51' W 005°48'0 0.0
2018-Jul-14 05:27N 54°51' W 005°48'0 0.0
2018-Jul-14 04:58N 54°51' W 005°48'4 9.5
2018-Jul-14 04:30N 54°53' W 005°42'918.3
2018-Jul-14 04:00N 54°58' W 005°27'917.6
2018-Jul-14 03:30N 55°01' W 005°13'714.5
2018-Jul-14 03:00N 54°58' W 005°02'0 0.1
2018-Jul-14 00:45N 54°58' W 005°02'515.4
2018-Jul-14 00:27N 55°02' W 005°08'818.6
2018-Jul-14 00:00N 54°58' W 005°21'917.7
2018-Jul-13 23:30N 54°54' W 005°35'816.0
2018-Jul-13 23:00N 54°51' W 005°48'0 0.2
2018-Jul-13 22:30N 54°51' W 005°48'0 0.0
2018-Jul-13 22:00N 54°51' W 005°48'0 0.0
2018-Jul-13 21:30N 54°51' W 005°48'0 0.0
2018-Jul-13 21:00N 54°51' W 005°48'1112.8
2018-Jul-13 20:08N 54°56' W 005°31'219.2
2018-Jul-13 20:01N 54°57' W 005°27'1019.9
2018-Jul-13 19:30N 55°01' W 005°11'611.7
2018-Jul-13 19:00N 54°59' W 005°02'1 0.7
2018-Jul-13 17:31N 54°58' W 005°01'0 0.5
2018-Jul-13 17:21N 54°58' W 005°01'510.4
2018-Jul-13 16:53N 55°01' W 005°07'719.0
2018-Jul-13 16:30N 54°59' W 005°18'1120.4
2018-Jul-13 15:59N 54°55' W 005°35'817.0
2018-Jul-13 15:31N 54°51' W 005°48'0 0.2
2018-Jul-13 15:00N 54°51' W 005°48'4 3.9
2018-Jul-13 14:00N 54°53' W 005°43'1121.1
2018-Jul-13 13:30N 54°58' W 005°26'1415.6
2018-Jul-13 12:37N 54°59' W 005°02'1 0.8
2018-Jul-13 11:16N 54°58' W 005°01'613.0
2018-Jul-13 10:50N 55°01' W 005°08'720.3
2018-Jul-13 10:30N 54°58' W 005°19'1020.2
2018-Jul-13 10:01N 54°54' W 005°35'816.4
2018-Jul-13 09:30N 54°51' W 005°48'0 0.1
2018-Jul-13 08:54N 54°51' W 005°48'0 0.0
2018-Jul-13 08:30N 54°51' W 005°48'5 9.3
2018-Jul-13 07:58N 54°53' W 005°41'917.4
2018-Jul-13 07:27N 54°58' W 005°27'818.1
2018-Jul-13 07:00N 55°01' W 005°14'713.7
2018-Jul-13 06:30N 54°59' W 005°02'1 0.8
2018-Jul-13 04:52N 54°58' W 005°01'510.3
2018-Jul-13 04:21N 55°02' W 005°08'719.5
2018-Jul-13 04:00N 54°59' W 005°18'1020.5
2018-Jul-13 03:30N 54°54' W 005°35'816.7
2018-Jul-13 03:00N 54°51' W 005°48'0 0.3
2018-Jul-13 02:30N 54°51' W 005°48'0 0.0
2018-Jul-13 02:00N 54°51' W 005°48'0 0.0
2018-Jul-13 01:30N 54°51' W 005°48'0 0.0
2018-Jul-13 01:00N 54°51' W 005°48'5 9.6
2018-Jul-13 00:30N 54°54' W 005°41'919.0
2018-Jul-13 00:01N 54°58' W 005°27'917.9
2018-Jul-12 23:29N 55°01' W 005°12'7 3.0
2018-Jul-12 21:06N 54°58' W 005°01'0 0.1
2018-Jul-12 20:59N 54°58' W 005°01'510.7
2018-Jul-12 20:30N 55°02' W 005°07'916.9
2018-Jul-12 20:00N 54°58' W 005°20'918.2
2018-Jul-12 19:30N 54°54' W 005°34'816.5
2018-Jul-12 19:00N 54°51' W 005°48'0 0.2
2018-Jul-12 18:28N 54°51' W 005°48'0 0.0
2018-Jul-12 17:55N 54°51' W 005°48'0 0.0
2018-Jul-12 17:30N 54°51' W 005°48'5 9.5
2018-Jul-12 17:00N 54°53' W 005°41'918.2
2018-Jul-12 16:30N 54°57' W 005°27'918.1
2018-Jul-12 16:00N 55°01' W 005°13'613.0
2018-Jul-12 15:31N 54°59' W 005°02'1 2.0
2018-Jul-12 14:59N 54°58' W 005°01'0 0.0
2018-Jul-12 14:26N 54°58' W 005°01'5 8.9
2018-Jul-12 13:50N 55°02' W 005°07'720.2
2018-Jul-12 13:31N 54°59' W 005°18'1120.0
2018-Jul-12 12:58N 54°54' W 005°35'815.7
2018-Jul-12 12:27N 54°51' W 005°48'0 0.3
2018-Jul-12 11:55N 54°51' W 005°48'0 0.0
2018-Jul-12 11:30N 54°51' W 005°48'5 9.1
2018-Jul-12 11:00N 54°53' W 005°41'918.9
2018-Jul-12 10:30N 54°57' W 005°26'1018.2
2018-Jul-12 09:58N 55°02' W 005°11'7 4.1
2018-Jul-12 08:18N 54°58' W 005°01'613.0
2018-Jul-12 07:51N 55°01' W 005°09'617.3
2018-Jul-12 07:30N 54°59' W 005°18'918.2
2018-Jul-12 07:00N 54°55' W 005°32'  
Track history (hours):
 
Tides and Currents Weather Stations Pressure Air Temp Water Temp Dewpoint Dewpoint Depression Visibility Wind Speed Wind Dir Waves Ship Positions

European Highlander

Operator: P&O Irish Sea Ltd

Last reported at 2018-Jul-22 07:00 UTC. Time now 2018-Jul-22 07:05 UTC.
Position N 54°55' W 005°34'.

Length 161 m; draft 5.4 m.

Type: Passenger vessel. MMSI: 311404000.

Date/timePositionNaut miles runAvg speedWind from/ knotsBaromVisibWave heightAir tempDewpointWater temp
2018-Jul-22 07:00N 54°55' W 005°34'816.3
2018-Jul-22 06:29N 54°51' W 005°48'0 0.3
2018-Jul-22 05:55N 54°51' W 005°48'0 0.0
2018-Jul-22 05:25N 54°51' W 005°48'0 0.0
2018-Jul-22 04:55N 54°51' W 005°48'0 0.0
2018-Jul-22 04:19N 54°51' W 005°48'0 0.0
2018-Jul-22 03:55N 54°51' W 005°48'0 0.0
2018-Jul-22 03:28N 54°51' W 005°48'0 0.0
2018-Jul-22 02:55N 54°51' W 005°48'0 0.0
2018-Jul-22 02:25N 54°51' W 005°48'0 0.0
2018-Jul-22 01:55N 54°51' W 005°48'0 0.0
2018-Jul-22 01:25N 54°51' W 005°48'0 0.0
2018-Jul-22 00:49N 54°51' W 005°48'0 0.0
2018-Jul-22 00:25N 54°51' W 005°48'0 0.0
2018-Jul-21 23:55N 54°51' W 005°48'0 0.0
2018-Jul-21 23:25N 54°51' W 005°48'0 0.0
2018-Jul-21 22:55N 54°51' W 005°48'0 0.0
2018-Jul-21 22:25N 54°51' W 005°48'0 0.0
2018-Jul-21 21:49N 54°51' W 005°48'0 0.0
2018-Jul-21 21:25N 54°51' W 005°48'0 0.0
2018-Jul-21 20:56N 54°51' W 005°48'611.6
2018-Jul-21 20:23N 54°54' W 005°38'718.4
2018-Jul-21 20:00N 54°57' W 005°28'1018.2
2018-Jul-21 19:29N 55°01' W 005°12'612.6
2018-Jul-21 18:59N 54°59' W 005°02'1 0.8
2018-Jul-21 17:31N 54°58' W 005°01'0 0.3
2018-Jul-21 17:24N 54°58' W 005°01'611.5
2018-Jul-21 16:55N 55°01' W 005°08'717.3
2018-Jul-21 16:30N 54°58' W 005°20'918.1
2018-Jul-21 16:00N 54°55' W 005°34'817.0
2018-Jul-21 15:30N 54°51' W 005°48'0 0.7
2018-Jul-21 15:00N 54°51' W 005°48'0 0.0
2018-Jul-21 14:29N 54°51' W 005°48'510.8
2018-Jul-21 14:00N 54°54' W 005°40'917.3
2018-Jul-21 13:30N 54°57' W 005°27'1017.3
2018-Jul-21 12:57N 55°01' W 005°11'613.5
2018-Jul-21 12:30N 54°58' W 005°02'1 0.7
2018-Jul-21 11:16N 54°58' W 005°01'413.0
2018-Jul-21 10:57N 55°01' W 005°05'819.0
2018-Jul-21 10:31N 54°58' W 005°19'1020.3
2018-Jul-21 10:00N 54°55' W 005°35'816.0
2018-Jul-21 09:31N 54°51' W 005°48'0 0.2
2018-Jul-21 08:51N 54°51' W 005°48'0 0.0
2018-Jul-21 08:30N 54°51' W 005°48'4 7.7
2018-Jul-21 08:00N 54°53' W 005°42'918.3
2018-Jul-21 07:30N 54°57' W 005°28'918.0
2018-Jul-21 06:59N 55°01' W 005°13'714.0
2018-Jul-21 06:30N 54°59' W 005°02'1 0.6
2018-Jul-21 04:51N 54°58' W 005°01'712.8
2018-Jul-21 04:19N 55°02' W 005°11'516.9
2018-Jul-21 04:00N 54°59' W 005°19'917.7
2018-Jul-21 03:30N 54°55' W 005°32'918.2
2018-Jul-21 02:59N 54°52' W 005°47'1 1.6
2018-Jul-21 02:24N 54°51' W 005°48'0 0.0
2018-Jul-21 02:00N 54°51' W 005°48'0 0.0
2018-Jul-21 01:27N 54°51' W 005°48'0 0.0
2018-Jul-21 01:00N 54°51' W 005°48'5 9.4
2018-Jul-21 00:29N 54°54' W 005°41'817.3
2018-Jul-21 00:00N 54°57' W 005°28'817.2
2018-Jul-20 23:30N 55°00' W 005°14'713.4
2018-Jul-20 22:59N 54°59' W 005°02'5 1.8
2018-Jul-20 20:22N 55°01' W 005°09'718.7
2018-Jul-20 20:00N 54°59' W 005°20'917.7
2018-Jul-20 19:30N 54°55' W 005°34'915.7
2018-Jul-20 18:56N 54°51' W 005°48'0 0.3
2018-Jul-20 18:27N 54°51' W 005°48'0 0.0
2018-Jul-20 17:57N 54°51' W 005°48'0 0.0
2018-Jul-20 17:30N 54°51' W 005°48'814.9
2018-Jul-20 16:58N 54°55' W 005°36'1020.2
2018-Jul-20 16:28N 54°59' W 005°20'1015.8
2018-Jul-20 15:49N 54°59' W 005°02'1 0.9
2018-Jul-20 14:22N 54°58' W 005°01'611.8
2018-Jul-20 13:54N 55°01' W 005°08'717.3
2018-Jul-20 13:30N 54°58' W 005°19'918.5
2018-Jul-20 13:00N 54°55' W 005°34'916.9
2018-Jul-20 12:29N 54°51' W 005°48'0 0.2
2018-Jul-20 11:33N 54°51' W 005°48'0 0.0
2018-Jul-20 11:30N 54°51' W 005°48'510.3
2018-Jul-20 10:58N 54°54' W 005°40'919.9
2018-Jul-20 10:30N 54°58' W 005°25'1315.6
2018-Jul-20 09:39N 54°59' W 005°02'1 0.9
2018-Jul-20 08:22N 54°58' W 005°01'611.9
2018-Jul-20 07:52N 55°02' W 005°09'718.8
2018-Jul-20 07:30N 54°58' W 005°20'917.7
2018-Jul-20 07:00N 54°55' W 005°34'817.1
2018-Jul-20 06:30N 54°52' W 005°48'1 1.5
2018-Jul-20 05:59N 54°51' W 005°48'0 0.0
2018-Jul-20 05:29N 54°51' W 005°48'0 0.0
2018-Jul-20 05:00N 54°51' W 005°48'5 9.9
2018-Jul-20 04:27N 54°54' W 005°40'817.4
2018-Jul-20 04:00N 54°58' W 005°29'816.7
2018-Jul-20 03:30N 55°00' W 005°15'713.5
2018-Jul-20 02:57N 54°59' W 005°02'1 0.5
2018-Jul-20 00:46N 54°58' W 005°01'512.4
2018-Jul-20 00:20N 55°02' W 005°08'618.6
2018-Jul-20 00:00N 54°59' W 005°17'1020.8
2018-Jul-19 23:30N 54°55' W 005°34'917.2
2018-Jul-19 23:00N 54°51' W 005°48'0 0.4
2018-Jul-19 22:28N 54°51' W 005°48'0 0.0
2018-Jul-19 21:58N 54°51' W 005°48'0 0.0
2018-Jul-19 21:28N 54°51' W 005°48'0 0.0
2018-Jul-19 20:57N 54°51' W 005°48'511.0
2018-Jul-19 20:30N 54°54' W 005°41'917.9
2018-Jul-19 20:00N 54°58' W 005°27'917.3
2018-Jul-19 19:30N 55°01' W 005°13'613.0
2018-Jul-19 19:01N 54°59' W 005°02'1 2.3
2018-Jul-19 18:26N 54°58' W 005°01'0 0.0
2018-Jul-19 17:56N 54°58' W 005°01'0 0.0
2018-Jul-19 17:27N 54°58' W 005°01'711.3
2018-Jul-19 16:52N 55°01' W 005°10'820.5
2018-Jul-19 16:30N 54°58' W 005°22'1020.3
2018-Jul-19 16:00N 54°54' W 005°38'612.5
2018-Jul-19 15:30N 54°51' W 005°48'0 0.0
2018-Jul-19 14:59N 54°51' W 005°48'0 0.0
2018-Jul-19 14:30N 54°51' W 005°48'1414.4
2018-Jul-19 13:30N 54°58' W 005°26'918.1
2018-Jul-19 13:00N 55°01' W 005°11'713.1
2018-Jul-19 12:30N 54°58' W 005°02'0 0.8
2018-Jul-19 12:00N 54°58' W 005°01'0 0.0
2018-Jul-19 11:28N 54°58' W 005°01'5 9.5
2018-Jul-19 10:55N 55°01' W 005°07'819.5
2018-Jul-19 10:30N 54°58' W 005°20'1020.7
2018-Jul-19 10:00N 54°54' W 005°37'714.2
2018-Jul-19 09:29N 54°51' W 005°48'0 0.1
2018-Jul-19 08:56N 54°51' W 005°48'0 0.0
2018-Jul-19 08:26N 54°51' W 005°48'4 8.3
2018-Jul-19 08:01N 54°53' W 005°43'917.9
2018-Jul-19 07:29N 54°57' W 005°29'816.9
2018-Jul-19 07:00N 55°00' W 005°15'813.5
2018-Jul-19 06:25N 54°59' W 005°02'1 0.7
2018-Jul-19 04:51N 54°58' W 005°01'514.9
2018-Jul-19 04:29N 55°02' W 005°07'816.3
2018-Jul-19 04:00N 54°59' W 005°19'917.8
2018-Jul-19 03:30N 54°55' W 005°33'917.9
2018-Jul-19 03:00N 54°52' W 005°48'1 1.6
2018-Jul-19 02:29N 54°51' W 005°48'0 0.0
2018-Jul-19 01:59N 54°51' W 005°48'0 0.0
2018-Jul-19 01:23N 54°51' W 005°48'0 0.0
2018-Jul-19 01:00N 54°51' W 005°48'611.1
2018-Jul-19 00:30N 54°54' W 005°40'917.2
2018-Jul-19 00:00N 54°57' W 005°26'918.2
2018-Jul-18 23:30N 55°01' W 005°12'7 2.7
2018-Jul-18 20:54N 54°58' W 005°01'511.9
2018-Jul-18 20:29N 55°02' W 005°07'919.6
2018-Jul-18 20:00N 54°58' W 005°22'1020.0
2018-Jul-18 19:29N 54°54' W 005°39'611.8
2018-Jul-18 18:58N 54°51' W 005°48'0 0.0
2018-Jul-18 18:29N 54°51' W 005°48'0 0.0
2018-Jul-18 17:59N 54°51' W 005°48'0 0.0
2018-Jul-18 17:29N 54°51' W 005°48'612.2
2018-Jul-18 17:01N 54°54' W 005°39'918.3
2018-Jul-18 16:31N 54°58' W 005°25'1017.6
2018-Jul-18 15:55N 55°02' W 005°08'6 3.6
2018-Jul-18 14:22N 54°58' W 005°01'1214.1
2018-Jul-18 13:30N 54°57' W 005°22'918.1
2018-Jul-18 13:00N 54°54' W 005°37'713.8
2018-Jul-18 12:30N 54°51' W 005°48'0 0.1
2018-Jul-18 12:00N 54°51' W 005°48'0 0.0
2018-Jul-18 11:30N 54°51' W 005°48'1413.9
2018-Jul-18 10:29N 54°58' W 005°26'918.0
2018-Jul-18 10:00N 55°01' W 005°12'713.1
2018-Jul-18 09:30N 54°58' W 005°02'1 0.9
2018-Jul-18 08:32N 54°58' W 005°01'0 1.5
2018-Jul-18 08:28N 54°58' W 005°01'610.5
2018-Jul-18 07:55N 55°01' W 005°09'820.2
2018-Jul-18 07:30N 54°58' W 005°22'1019.8
2018-Jul-18 07:01N 54°54' W 005°38'612.9
2018-Jul-18 06:30N 54°51' W 005°48'0 0.0
2018-Jul-18 06:00N 54°51' W 005°48'0 0.0
2018-Jul-18 05:30N 54°51' W 005°48'0 0.0
2018-Jul-18 04:58N 54°51' W 005°48'4 8.6
2018-Jul-18 04:30N 54°53' W 005°43'1018.5
2018-Jul-18 03:59N 54°58' W 005°28'917.9
2018-Jul-18 03:30N 55°01' W 005°14'713.6
2018-Jul-18 03:00N 54°59' W 005°03'1 0.7
2018-Jul-18 00:54N 54°58' W 005°01'612.8
2018-Jul-18 00:24N 55°01' W 005°10'717.0
2018-Jul-18 00:00N 54°58' W 005°20'918.0
2018-Jul-17 23:30N 54°55' W 005°35'816.5
2018-Jul-17 23:00N 54°51' W 005°48'0 0.3
2018-Jul-17 22:28N 54°51' W 005°48'0 0.0
2018-Jul-17 21:52N 54°51' W 005°48'0 0.0
2018-Jul-17 21:28N 54°51' W 005°48'0 0.0
2018-Jul-17 20:58N 54°51' W 005°48'510.2
2018-Jul-17 20:27N 54°54' W 005°40'919.7
2018-Jul-17 20:01N 54°58' W 005°27'1019.8
2018-Jul-17 19:30N 55°01' W 005°11'612.8
2018-Jul-17 19:00N 54°58' W 005°01'0 0.5
2018-Jul-17 18:21N 54°58' W 005°01'0 0.0
2018-Jul-17 18:00N 54°58' W 005°01'0 0.4
2018-Jul-17 17:31N 54°58' W 005°01'712.4
2018-Jul-17 16:59N 55°01' W 005°11'1020.6
2018-Jul-17 16:30N 54°57' W 005°26'1019.3
2018-Jul-17 16:00N 54°53' W 005°42'4 7.7
2018-Jul-17 15:29N 54°51' W 005°48'0 0.0
2018-Jul-17 14:59N 54°51' W 005°48'0 0.0
2018-Jul-17 14:30N 54°51' W 005°48'510.6
2018-Jul-17 14:00N 54°54' W 005°40'917.5
2018-Jul-17 13:30N 54°57' W 005°27'917.2
2018-Jul-17 13:00N 55°01' W 005°13'713.5
2018-Jul-17 12:30N 54°58' W 005°02'1 1.4
2018-Jul-17 11:53N 54°58' W 005°01'0 0.0
2018-Jul-17 11:30N 54°58' W 005°01'510.3
2018-Jul-17 10:59N 55°02' W 005°07'816.5
2018-Jul-17 10:30N 54°58' W 005°20'918.1
2018-Jul-17 10:00N 54°54' W 005°34'916.9
2018-Jul-17 09:30N 54°51' W 005°48'0 0.3
2018-Jul-17 08:57N 54°51' W 005°48'0 0.0
2018-Jul-17 08:30N 54°51' W 005°48'4 8.0
2018-Jul-17 08:01N 54°53' W 005°42'917.5
2018-Jul-17 07:31N 54°57' W 005°29'917.1
2018-Jul-17 07:01N 55°00' W 005°15'713.9
2018-Jul-17 06:29N 54°59' W 005°02'1 0.8
2018-Jul-17 04:48N 54°58' W 005°01'613.2
2018-Jul-17 04:21N 55°02' W 005°09'720.7
2018-Jul-17 04:00N 54°59' W 005°20'1119.8
2018-Jul-17 03:28N 54°54' W 005°37'714.8
2018-Jul-17 03:00N 54°51' W 005°48'0 0.2
2018-Jul-17 02:29N 54°51' W 005°48'0 0.0
2018-Jul-17 01:59N 54°51' W 005°48'0 0.0
2018-Jul-17 01:29N 54°51' W 005°48'0 0.0
2018-Jul-17 01:00N 54°51' W 005°48'5 9.7
2018-Jul-17 00:30N 54°54' W 005°41'1717.2
2018-Jul-16 23:31N 55°01' W 005°14'713.6
2018-Jul-16 23:00N 54°59' W 005°03'1 0.8
2018-Jul-16 21:18N 54°58' W 005°01'0 0.2
2018-Jul-16 20:59N 54°58' W 005°01'510.4
2018-Jul-16 20:28N 55°01' W 005°08'818.1
2018-Jul-16 20:01N 54°58' W 005°21'1120.4
2018-Jul-16 19:30N 54°54' W 005°38'612.6
2018-Jul-16 18:59N 54°51' W 005°48'0 0.0
2018-Jul-16 18:23N 54°51' W 005°48'0 0.0
2018-Jul-16 17:59N 54°51' W 005°48'0 0.0
2018-Jul-16 17:29N 54°51' W 005°48'5 9.9
2018-Jul-16 16:58N 54°54' W 005°40'1020.5
2018-Jul-16 16:30N 54°58' W 005°25'817.1
2018-Jul-16 16:00N 55°01' W 005°12'7 4.8
2018-Jul-16 14:30N 54°58' W 005°01'5 9.3
2018-Jul-16 13:58N 55°02' W 005°07'920.0
2018-Jul-16 13:30N 54°58' W 005°21'1119.8
2018-Jul-16 12:57N 54°53' W 005°38'613.1
2018-Jul-16 12:30N 54°51' W 005°48'0 0.0
2018-Jul-16 11:52N 54°51' W 005°48'0 0.0
2018-Jul-16 11:30N 54°51' W 005°48'4 9.0
2018-Jul-16 11:01N 54°53' W 005°42'917.7
2018-Jul-16 10:31N 54°57' W 005°28'918.3
2018-Jul-16 10:01N 55°01' W 005°13'713.5
2018-Jul-16 09:30N 54°58' W 005°02'1 0.8
2018-Jul-16 08:35N 54°58' W 005°01'0 0.8
2018-Jul-16 08:30N 54°58' W 005°01'611.5
2018-Jul-16 08:00N 55°01' W 005°09'917.2
2018-Jul-16 07:30N 54°57' W 005°22'918.2
2018-Jul-16 07:00N 54°54' W 005°37'714.4
2018-Jul-16 06:30N 54°51' W 005°48'0 0.1
2018-Jul-16 05:42N 54°51' W 005°48'0 0.0
2018-Jul-16 05:18N 54°51' W 005°48'0 0.0
2018-Jul-16 05:00N 54°51' W 005°48'5 9.5
2018-Jul-16 04:28N 54°54' W 005°40'818.4
2018-Jul-16 04:00N 54°58' W 005°27'917.2
2018-Jul-16 03:28N 55°02' W 005°13'715.1
2018-Jul-16 03:00N 54°59' W 005°02'1 0.6
2018-Jul-16 00:51N 54°58' W 005°01'812.5
2018-Jul-16 00:12N 55°00' W 005°15'417.6
2018-Jul-15 23:59N 54°58' W 005°20'917.8
2018-Jul-15 23:29N 54°54' W 005°34'816.7
2018-Jul-15 22:59N 54°51' W 005°48'0 0.4
2018-Jul-15 22:29N 54°51' W 005°48'0 0.0
2018-Jul-15 21:59N 54°51' W 005°48'0 0.0
2018-Jul-15 21:29N 54°51' W 005°48'0 0.0
2018-Jul-15 21:00N 54°51' W 005°48'611.7
2018-Jul-15 20:27N 54°55' W 005°39'716.3
2018-Jul-15 20:00N 54°59' W 005°28'917.8
2018-Jul-15 19:29N 55°01' W 005°13'613.2
2018-Jul-15 19:00N 54°59' W 005°02'1 0.6
2018-Jul-15 17:19N 54°58' W 005°01'612.3
2018-Jul-15 16:49N 55°01' W 005°10'720.4
2018-Jul-15 16:30N 54°58' W 005°20'1119.8
2018-Jul-15 15:57N 54°54' W 005°37'715.4
2018-Jul-15 15:30N 54°51' W 005°48'0 0.3
2018-Jul-15 14:56N 54°51' W 005°48'0 0.0
2018-Jul-15 14:30N 54°51' W 005°48'4 8.4
2018-Jul-15 14:00N 54°54' W 005°43'918.5
2018-Jul-15 13:30N 54°57' W 005°28'1514.7
2018-Jul-15 12:31N 54°59' W 005°02'015.3
2018-Jul-15 12:30N 54°59' W 005°02'1 1.2
2018-Jul-15 11:27N 54°58' W 005°01'613.8
2018-Jul-15 11:00N 55°01' W 005°10'817.1
2018-Jul-15 10:30N 54°57' W 005°22'918.1
2018-Jul-15 10:00N 54°53' W 005°37'713.8
2018-Jul-15 09:30N 54°51' W 005°48'0 0.0
2018-Jul-15 08:56N 54°51' W 005°48'0 0.0
2018-Jul-15 08:26N 54°51' W 005°48'2 5.4
2018-Jul-15 08:00N 54°52' W 005°45'1019.5
2018-Jul-15 07:30N 54°57' W 005°30'1019.3
2018-Jul-15 07:00N 55°01' W 005°14'713.5
2018-Jul-15 06:28N 54°59' W 005°02'1 0.2
2018-Jul-14 23:23N 54°58' W 005°01'0 0.0
2018-Jul-14 22:59N 54°58' W 005°01'0 0.0
2018-Jul-14 22:29N 54°58' W 005°01'0 0.0
2018-Jul-14 21:59N 54°58' W 005°01'0 0.0
2018-Jul-14 21:29N 54°58' W 005°01'8 7.2
2018-Jul-14 20:23N 55°00' W 005°14'820.0
2018-Jul-14 19:59N 54°56' W 005°26'1021.3
2018-Jul-14 19:30N 54°53' W 005°43'3 6.9
2018-Jul-14 19:00N 54°51' W 005°48'0 0.0
2018-Jul-14 18:29N 54°51' W 005°48'0 0.0
2018-Jul-14 17:59N 54°51' W 005°48'0 0.0
2018-Jul-14 17:29N 54°51' W 005°48'3 5.3
2018-Jul-14 17:00N 54°53' W 005°45'1020.2
2018-Jul-14 16:30N 54°57' W 005°29'1019.8
2018-Jul-14 16:00N 55°01' W 005°13'714.7
2018-Jul-14 15:30N 54°58' W 005°02'1 1.1
2018-Jul-14 14:57N 54°58' W 005°01'5 5.6
2018-Jul-14 14:00N 55°02' W 005°07'1021.0
2018-Jul-14 13:31N 54°57' W 005°24'1019.9
2018-Jul-14 13:00N 54°53' W 005°40'5 9.3
2018-Jul-14 12:27N 54°51' W 005°48'0 0.0
2018-Jul-14 11:56N 54°51' W 005°48'0 0.0
2018-Jul-14 11:30N 54°51' W 005°48'612.0
2018-Jul-14 11:00N 54°54' W 005°39'918.1
2018-Jul-14 10:30N 54°58' W 005°25'1314.9
2018-Jul-14 09:38N 54°59' W 005°02'1 1.1
2018-Jul-14 08:23N 54°58' W 005°01'513.0
2018-Jul-14 07:59N 55°02' W 005°07'816.9
2018-Jul-14 07:30N 54°58' W 005°20'1019.2
2018-Jul-14 07:00N 54°54' W 005°35'816.2
2018-Jul-14 06:30N 54°51' W 005°48'0 0.1
2018-Jul-14 05:57N 54°51' W 005°48'0 0.0
2018-Jul-14 05:27N 54°51' W 005°48'0 0.0
2018-Jul-14 04:58N 54°51' W 005°48'4 9.5
2018-Jul-14 04:30N 54°53' W 005°42'918.3
2018-Jul-14 04:00N 54°58' W 005°27'917.6
2018-Jul-14 03:30N 55°01' W 005°13'714.5
2018-Jul-14 03:00N 54°58' W 005°02'0 0.1
2018-Jul-14 00:45N 54°58' W 005°02'515.4
2018-Jul-14 00:27N 55°02' W 005°08'818.6
2018-Jul-14 00:00N 54°58' W 005°21'917.7
2018-Jul-13 23:30N 54°54' W 005°35'816.0
2018-Jul-13 23:00N 54°51' W 005°48'0 0.2
2018-Jul-13 22:30N 54°51' W 005°48'0 0.0
2018-Jul-13 22:00N 54°51' W 005°48'0 0.0
2018-Jul-13 21:30N 54°51' W 005°48'0 0.0
2018-Jul-13 21:00N 54°51' W 005°48'1112.8
2018-Jul-13 20:08N 54°56' W 005°31'219.2
2018-Jul-13 20:01N 54°57' W 005°27'1019.9
2018-Jul-13 19:30N 55°01' W 005°11'611.7
2018-Jul-13 19:00N 54°59' W 005°02'1 0.7
2018-Jul-13 17:31N 54°58' W 005°01'0 0.5
2018-Jul-13 17:21N 54°58' W 005°01'510.4
2018-Jul-13 16:53N 55°01' W 005°07'719.0
2018-Jul-13 16:30N 54°59' W 005°18'1120.4
2018-Jul-13 15:59N 54°55' W 005°35'817.0
2018-Jul-13 15:31N 54°51' W 005°48'0 0.2
2018-Jul-13 15:00N 54°51' W 005°48'4 3.9
2018-Jul-13 14:00N 54°53' W 005°43'1121.1
2018-Jul-13 13:30N 54°58' W 005°26'1415.6
2018-Jul-13 12:37N 54°59' W 005°02'1 0.8
2018-Jul-13 11:16N 54°58' W 005°01'613.0
2018-Jul-13 10:50N 55°01' W 005°08'720.3
2018-Jul-13 10:30N 54°58' W 005°19'1020.2
2018-Jul-13 10:01N 54°54' W 005°35'816.4
2018-Jul-13 09:30N 54°51' W 005°48'0 0.1
2018-Jul-13 08:54N 54°51' W 005°48'0 0.0
2018-Jul-13 08:30N 54°51' W 005°48'5 9.3
2018-Jul-13 07:58N 54°53' W 005°41'917.4
2018-Jul-13 07:27N 54°58' W 005°27'818.1
2018-Jul-13 07:00N 55°01' W 005°14'713.7
2018-Jul-13 06:30N 54°59' W 005°02'1 0.8
2018-Jul-13 04:52N 54°58' W 005°01'510.3
2018-Jul-13 04:21N 55°02' W 005°08'719.5
2018-Jul-13 04:00N 54°59' W 005°18'1020.5
2018-Jul-13 03:30N 54°54' W 005°35'816.7
2018-Jul-13 03:00N 54°51' W 005°48'0 0.3
2018-Jul-13 02:30N 54°51' W 005°48'0 0.0
2018-Jul-13 02:00N 54°51' W 005°48'0 0.0
2018-Jul-13 01:30N 54°51' W 005°48'0 0.0
2018-Jul-13 01:00N 54°51' W 005°48'5 9.6
2018-Jul-13 00:30N 54°54' W 005°41'919.0
2018-Jul-13 00:01N 54°58' W 005°27'917.9
2018-Jul-12 23:29N 55°01' W 005°12'7 3.0
2018-Jul-12 21:06N 54°58' W 005°01'0 0.1
2018-Jul-12 20:59N 54°58' W 005°01'510.7
2018-Jul-12 20:30N 55°02' W 005°07'916.9
2018-Jul-12 20:00N 54°58' W 005°20'918.2
2018-Jul-12 19:30N 54°54' W 005°34'816.5
2018-Jul-12 19:00N 54°51' W 005°48'0 0.2
2018-Jul-12 18:28N 54°51' W 005°48'0 0.0
2018-Jul-12 17:55N 54°51' W 005°48'0 0.0
2018-Jul-12 17:30N 54°51' W 005°48'5 9.5
2018-Jul-12 17:00N 54°53' W 005°41'918.2
2018-Jul-12 16:30N 54°57' W 005°27'918.1
2018-Jul-12 16:00N 55°01' W 005°13'613.0
2018-Jul-12 15:31N 54°59' W 005°02'1 2.0
2018-Jul-12 14:59N 54°58' W 005°01'0 0.0
2018-Jul-12 14:26N 54°58' W 005°01'5 8.9
2018-Jul-12 13:50N 55°02' W 005°07'720.2
2018-Jul-12 13:31N 54°59' W 005°18'1120.0
2018-Jul-12 12:58N 54°54' W 005°35'815.7
2018-Jul-12 12:27N 54°51' W 005°48'0 0.3
2018-Jul-12 11:55N 54°51' W 005°48'0 0.0
2018-Jul-12 11:30N 54°51' W 005°48'5 9.1
2018-Jul-12 11:00N 54°53' W 005°41'918.9
2018-Jul-12 10:30N 54°57' W 005°26'1018.2
2018-Jul-12 09:58N 55°02' W 005°11'7 4.1
2018-Jul-12 08:18N 54°58' W 005°01'613.0
2018-Jul-12 07:51N 55°01' W 005°09'617.3
2018-Jul-12 07:30N 54°59' W 005°18'918.2
2018-Jul-12 07:00N 54°55' W 005°32'  

Dump ship's entire track history